Volcan De Teneguia — ECLA — position and weather

sailwx.info

Track history (hours):
 
Tides and Currents Weather Stations Pressure Air Temp Water Temp Dewpoint Dewpoint Depression Visibility Wind Speed Wind Dir Waves Ship Positions

Volcan De Teneguia

Last reported at 2015-Aug-03 05:22 UTC. Time now 2015-Aug-04 05:20 UTC.
Position N 36°14' W 007°09'.

Length 145 m; draft 5.2 m.

Type: Cargo ship. MMSI: 225317000.

Date/timePositionNaut miles runAvg speedWind from/ knotsBaromVisibWave heightAir tempDewpointWater temp
2015-Aug-03 05:22N 36°14' W 007°09'1315.2
2015-Aug-03 04:30N 36°05' W 007°20'1515.7
2015-Aug-03 03:33N 35°54' W 007°33'55313.4
2015-Aug-01 10:19N 29°20' W 015°12'1013.3
2015-Aug-01 09:33N 29°12' W 015°21'1313.4
2015-Aug-01 08:33N 29°02' W 015°31'1313.2
2015-Aug-01 07:33N 28°53' W 015°42'1313.2
2015-Aug-01 06:33N 28°44' W 015°52'1312.9
2015-Aug-01 05:33N 28°34' W 016°02'11 4.6
2015-Aug-01 03:09N 28°29' W 016°14'0 0.0
2015-Aug-01 02:27N 28°29' W 016°14'0 0.0
2015-Aug-01 01:27N 28°29' W 016°14'0 0.0
2015-Aug-01 00:21N 28°29' W 016°14'4 5.3
2015-Jul-31 23:33N 28°27' W 016°10'1414.2
2015-Jul-31 22:33N 28°22' W 015°54'1414.4
2015-Jul-31 21:33N 28°17' W 015°39'1414.1
2015-Jul-31 20:33N 28°12' W 015°24'3 3.1
2015-Jul-31 19:33N 28°09' W 015°25'0 0.0
2015-Jul-31 18:33N 28°09' W 015°25'0 0.0
2015-Jul-31 17:23N 28°09' W 015°25'0 0.0
2015-Jul-31 16:24N 28°09' W 015°25'0 0.0
2015-Jul-31 15:27N 28°09' W 015°25'0 0.0
2015-Jul-31 14:27N 28°09' W 015°25'0 0.0
2015-Jul-31 13:27N 28°09' W 015°25'0 0.0
2015-Jul-31 12:29N 28°09' W 015°25'0 0.0
2015-Jul-31 11:30N 28°09' W 015°25'0 0.0
2015-Jul-31 10:30N 28°09' W 015°25'0 0.0
2015-Jul-31 09:32N 28°09' W 015°25'0 0.0
2015-Jul-31 08:33N 28°09' W 015°25'0 0.0
2015-Jul-31 07:33N 28°09' W 015°25'2 2.4
2015-Jul-31 06:33N 28°08' W 015°23'1312.8
2015-Jul-31 05:33N 28°17' W 015°13'1514.9
2015-Jul-31 04:33N 28°29' W 015°02'1514.8
2015-Jul-31 03:33N 28°40' W 014°51'53314.4
2015-Jul-29 14:33N 35°23' W 007°59'1414.5
2015-Jul-29 13:33N 35°34' W 007°48'1414.3
2015-Jul-29 12:33N 35°45' W 007°36'1414.2
2015-Jul-29 11:33N 35°56' W 007°25'6314.6
2015-Jul-29 07:13N 36°43' W 006°33'  
2015-Jul-27 02:33N 35°42' W 007°23'1514.8
2015-Jul-27 01:33N 35°30' W 007°33'1514.7
2015-Jul-27 00:33N 35°17' W 007°42'1414.1
2015-Jul-26 23:33N 35°05' W 007°51'4013.3
2015-Jul-26 20:31N 34°33' W 008°21'1313.1
2015-Jul-26 19:33N 34°25' W 008°33'7612.7
2015-Jul-26 13:33N 33°37' W 009°44'7212.1
2015-Jul-26 07:32N 32°53' W 010°53'1111.6
2015-Jul-26 06:33N 32°46' W 011°04'370 9.9
2015-Jul-24 17:11N 28°27' W 016°11'914.2
2015-Jul-24 16:33N 28°24' W 016°02'1414.4
2015-Jul-24 15:33N 28°19' W 015°47'1514.7
2015-Jul-24 14:33N 28°15' W 015°31'9 9.4
2015-Jul-24 13:33N 28°07' W 015°24'2 1.8
2015-Jul-24 12:30N 28°09' W 015°25'0 0.0
2015-Jul-24 11:33N 28°09' W 015°25'0 0.0
2015-Jul-24 10:33N 28°09' W 015°25'0 0.0
2015-Jul-24 09:33N 28°09' W 015°25'0 0.0
2015-Jul-24 08:33N 28°09' W 015°25'0 0.0
2015-Jul-24 07:31N 28°09' W 015°25'0 0.0
2015-Jul-24 06:31N 28°09' W 015°25'2 2.6
2015-Jul-24 05:33N 28°07' W 015°23'  
Track history (hours):
 
Tides and Currents Weather Stations Pressure Air Temp Water Temp Dewpoint Dewpoint Depression Visibility Wind Speed Wind Dir Waves Ship Positions

Volcan De Teneguia

Last reported at 2015-Aug-03 05:22 UTC. Time now 2015-Aug-04 05:20 UTC.
Position N 36°14' W 007°09'.

Length 145 m; draft 5.2 m.

Type: Cargo ship. MMSI: 225317000.

Date/timePositionNaut miles runAvg speedWind from/ knotsBaromVisibWave heightAir tempDewpointWater temp
2015-Aug-03 05:22N 36°14' W 007°09'1315.2
2015-Aug-03 04:30N 36°05' W 007°20'1515.7
2015-Aug-03 03:33N 35°54' W 007°33'55313.4
2015-Aug-01 10:19N 29°20' W 015°12'1013.3
2015-Aug-01 09:33N 29°12' W 015°21'1313.4
2015-Aug-01 08:33N 29°02' W 015°31'1313.2
2015-Aug-01 07:33N 28°53' W 015°42'1313.2
2015-Aug-01 06:33N 28°44' W 015°52'1312.9
2015-Aug-01 05:33N 28°34' W 016°02'11 4.6
2015-Aug-01 03:09N 28°29' W 016°14'0 0.0
2015-Aug-01 02:27N 28°29' W 016°14'0 0.0
2015-Aug-01 01:27N 28°29' W 016°14'0 0.0
2015-Aug-01 00:21N 28°29' W 016°14'4 5.3
2015-Jul-31 23:33N 28°27' W 016°10'1414.2
2015-Jul-31 22:33N 28°22' W 015°54'1414.4
2015-Jul-31 21:33N 28°17' W 015°39'1414.1
2015-Jul-31 20:33N 28°12' W 015°24'3 3.1
2015-Jul-31 19:33N 28°09' W 015°25'0 0.0
2015-Jul-31 18:33N 28°09' W 015°25'0 0.0
2015-Jul-31 17:23N 28°09' W 015°25'0 0.0
2015-Jul-31 16:24N 28°09' W 015°25'0 0.0
2015-Jul-31 15:27N 28°09' W 015°25'0 0.0
2015-Jul-31 14:27N 28°09' W 015°25'0 0.0
2015-Jul-31 13:27N 28°09' W 015°25'0 0.0
2015-Jul-31 12:29N 28°09' W 015°25'0 0.0
2015-Jul-31 11:30N 28°09' W 015°25'0 0.0
2015-Jul-31 10:30N 28°09' W 015°25'0 0.0
2015-Jul-31 09:32N 28°09' W 015°25'0 0.0
2015-Jul-31 08:33N 28°09' W 015°25'0 0.0
2015-Jul-31 07:33N 28°09' W 015°25'2 2.4
2015-Jul-31 06:33N 28°08' W 015°23'1312.8
2015-Jul-31 05:33N 28°17' W 015°13'1514.9
2015-Jul-31 04:33N 28°29' W 015°02'1514.8
2015-Jul-31 03:33N 28°40' W 014°51'53314.4
2015-Jul-29 14:33N 35°23' W 007°59'1414.5
2015-Jul-29 13:33N 35°34' W 007°48'1414.3
2015-Jul-29 12:33N 35°45' W 007°36'1414.2
2015-Jul-29 11:33N 35°56' W 007°25'6314.6
2015-Jul-29 07:13N 36°43' W 006°33'  
2015-Jul-27 02:33N 35°42' W 007°23'1514.8
2015-Jul-27 01:33N 35°30' W 007°33'1514.7
2015-Jul-27 00:33N 35°17' W 007°42'1414.1
2015-Jul-26 23:33N 35°05' W 007°51'4013.3
2015-Jul-26 20:31N 34°33' W 008°21'1313.1
2015-Jul-26 19:33N 34°25' W 008°33'7612.7
2015-Jul-26 13:33N 33°37' W 009°44'7212.1
2015-Jul-26 07:32N 32°53' W 010°53'1111.6
2015-Jul-26 06:33N 32°46' W 011°04'370 9.9
2015-Jul-24 17:11N 28°27' W 016°11'914.2
2015-Jul-24 16:33N 28°24' W 016°02'1414.4
2015-Jul-24 15:33N 28°19' W 015°47'1514.7
2015-Jul-24 14:33N 28°15' W 015°31'9 9.4
2015-Jul-24 13:33N 28°07' W 015°24'2 1.8
2015-Jul-24 12:30N 28°09' W 015°25'0 0.0
2015-Jul-24 11:33N 28°09' W 015°25'0 0.0
2015-Jul-24 10:33N 28°09' W 015°25'0 0.0
2015-Jul-24 09:33N 28°09' W 015°25'0 0.0
2015-Jul-24 08:33N 28°09' W 015°25'0 0.0
2015-Jul-24 07:31N 28°09' W 015°25'0 0.0
2015-Jul-24 06:31N 28°09' W 015°25'2 2.6
2015-Jul-24 05:33N 28°07' W 015°23'  

Dump ship's entire track history